Baingoin, China
Current Conditions -  °F | °C
As of 9:20 PM on Wednesday 22 Oct 2014 (Local Time) from VGHS Reporting Station
Haze Haze  
Wind Chill: 82°   Ceiling: Unl
Heat Index: 87°   Visibility: 3mi
Dew Point: 72°   Wind: 6mph
Humidity: 70%   Direction: 310°NW
Pressure: 29.85"   Gusts: NA
Location:  31.37°N, 90.02°E
Report Text: VGHS 221320Z 31005KT 5000 HZ FEW015 SCT100 28/22 Q1011 NOSIG
Loading
Personal Weather Stations






























Interactive Weather Map
Tropical Storm Tracking
New forecast layout! Learn more

10-Day Weather Forecast

Advertisements
Track Severe Weather on mobile